createdAt,value
2018-05-21T00:01:36.807Z,19.50
2018-05-21T00:04:04.275Z,19.60
2018-05-21T00:06:31.704Z,19.60
2018-05-21T00:08:59.178Z,19.60
2018-05-21T00:11:26.655Z,19.50
2018-05-21T00:13:54.095Z,19.50
2018-05-21T00:16:21.534Z,19.50
2018-05-21T00:18:48.956Z,19.40
2018-05-21T00:21:17.189Z,19.40
2018-05-21T00:23:44.611Z,19.40
2018-05-21T00:26:12.042Z,19.30
2018-05-21T00:28:40.244Z,19.30
2018-05-21T00:31:07.726Z,19.30
2018-05-21T00:33:35.154Z,19.30
2018-05-21T00:36:02.660Z,19.40
2018-05-21T00:38:30.074Z,19.30
2018-05-21T00:40:57.648Z,19.30
2018-05-21T00:43:25.119Z,19.20
2018-05-21T00:45:52.573Z,19.20
2018-05-21T00:48:20.012Z,19.20
2018-05-21T00:50:47.449Z,19.20
2018-05-21T00:53:15.644Z,18.90
2018-05-21T00:55:43.095Z,18.90
2018-05-21T00:58:10.588Z,19.00
2018-05-21T01:00:38.133Z,19.00
2018-05-21T01:03:05.491Z,18.90
2018-05-21T01:05:32.967Z,18.80
2018-05-21T01:08:00.390Z,18.70
2018-05-21T01:10:27.818Z,18.70
2018-05-21T01:12:56.182Z,18.50
2018-05-21T01:15:24.395Z,18.60
2018-05-21T01:17:51.878Z,18.60
2018-05-21T01:20:19.318Z,18.50
2018-05-21T01:22:46.763Z,18.40
2018-05-21T01:25:15.395Z,18.30
2018-05-21T01:27:42.884Z,18.30
2018-05-21T01:30:10.312Z,18.40
2018-05-21T01:32:37.783Z,18.30
2018-05-21T01:35:05.228Z,18.20
2018-05-21T01:37:32.649Z,18.20
2018-05-21T01:40:00.129Z,18.20
2018-05-21T01:42:27.557Z,18.00
2018-05-21T01:44:55.975Z,18.10
2018-05-21T01:47:23.434Z,17.90
2018-05-21T01:49:50.871Z,17.90
2018-05-21T01:52:18.311Z,17.90
2018-05-21T01:54:45.750Z,17.80
2018-05-21T01:57:14.059Z,17.90
2018-05-21T01:59:41.619Z,17.90
2018-05-21T02:02:09.260Z,17.80
2018-05-21T02:04:36.704Z,17.90
2018-05-21T02:07:04.910Z,17.80
2018-05-21T02:09:32.330Z,17.80
2018-05-21T02:12:00.526Z,17.60
2018-05-21T02:14:27.956Z,17.60
2018-05-21T02:16:55.478Z,17.50
2018-05-21T02:19:22.902Z,17.60
2018-05-21T02:21:50.392Z,17.50
2018-05-21T02:24:17.841Z,17.60
2018-05-21T02:26:45.287Z,17.50
2018-05-21T02:29:12.712Z,17.50
2018-05-21T02:31:40.903Z,17.20
2018-05-21T02:34:08.338Z,17.20
2018-05-21T02:36:35.864Z,17.20
2018-05-21T02:39:03.355Z,17.20
2018-05-21T02:41:30.795Z,17.20
2018-05-21T02:43:59.047Z,17.20
2018-05-21T02:46:26.501Z,17.20
2018-05-21T02:48:53.943Z,17.10
2018-05-21T02:51:21.371Z,17.10
2018-05-21T02:53:49.573Z,17.30
2018-05-21T02:56:17.002Z,17.30
2018-05-21T02:58:45.231Z,17.10
2018-05-21T03:01:12.649Z,17.10
2018-05-21T03:03:40.140Z,17.00
2018-05-21T03:06:07.567Z,17.00
2018-05-21T03:08:34.991Z,17.10
2018-05-21T03:11:02.524Z,17.00
2018-05-21T03:13:29.962Z,17.00
2018-05-21T03:15:57.432Z,17.10
2018-05-21T03:18:24.886Z,16.90
2018-05-21T03:20:52.349Z,17.00
2018-05-21T03:23:19.803Z,16.80
2018-05-21T03:25:47.250Z,16.90
2018-05-21T03:28:14.718Z,16.80
2018-05-21T03:30:42.152Z,16.80
2018-05-21T03:33:09.583Z,16.80
2018-05-21T03:35:37.771Z,16.70
2018-05-21T03:38:05.235Z,16.70
2018-05-21T03:40:33.419Z,16.70
2018-05-21T03:43:00.900Z,16.70
2018-05-21T03:45:29.294Z,16.60
2018-05-21T03:47:56.724Z,16.60
2018-05-21T03:50:24.147Z,16.60
2018-05-21T03:52:52.359Z,16.70
2018-05-21T03:55:19.831Z,16.70
2018-05-21T03:57:47.293Z,16.80
2018-05-21T04:00:26.792Z,16.80
2018-05-21T04:03:06.150Z,16.90
2018-05-21T04:05:33.614Z,16.70
2018-05-21T04:08:01.051Z,16.80
2018-05-21T04:10:29.430Z,16.80
2018-05-21T04:12:56.863Z,16.90
2018-05-21T04:15:25.088Z,16.80
2018-05-21T04:17:52.539Z,16.80
2018-05-21T04:20:20.019Z,16.90
2018-05-21T04:22:47.448Z,17.00
2018-05-21T04:25:14.892Z,16.80
2018-05-21T04:27:42.378Z,16.80
2018-05-21T04:30:09.835Z,16.80
2018-05-21T04:32:37.290Z,17.00
2018-05-21T04:35:04.720Z,16.90
2018-05-21T04:37:32.223Z,17.10
2018-05-21T04:39:59.657Z,17.10
2018-05-21T04:42:27.127Z,17.10
2018-05-21T04:44:54.799Z,17.20
2018-05-21T04:47:22.231Z,17.30
2018-05-21T04:49:49.680Z,17.30
2018-05-21T04:52:17.115Z,17.30
2018-05-21T04:54:45.325Z,17.30
2018-05-21T04:57:12.771Z,17.20
2018-05-21T04:59:40.199Z,17.30
2018-05-21T05:02:08.452Z,17.60
2018-05-21T05:04:38.681Z,17.50
2018-05-21T05:07:06.407Z,17.70
2018-05-21T05:09:33.807Z,17.80
2018-05-21T05:12:01.238Z,18.00
2018-05-21T05:14:29.608Z,17.80
2018-05-21T05:16:57.083Z,17.80
2018-05-21T05:19:24.520Z,17.80
2018-05-21T05:21:51.973Z,18.00
2018-05-21T05:24:19.396Z,17.90
2018-05-21T05:26:47.579Z,18.20
2018-05-21T05:29:15.063Z,18.10
2018-05-21T05:31:42.500Z,18.00
2018-05-21T05:34:09.927Z,18.00
2018-05-21T05:36:38.163Z,18.00
2018-05-21T05:39:06.361Z,18.00
2018-05-21T05:41:33.859Z,18.10
2018-05-21T05:44:01.297Z,18.20
2018-05-21T05:46:30.418Z,18.30
2018-05-21T05:48:57.854Z,18.30
2018-05-21T05:51:26.064Z,18.40
2018-05-21T05:53:53.497Z,18.40
2018-05-21T05:56:21.698Z,18.70
2018-05-21T05:58:49.131Z,18.70
2018-05-21T06:01:16.568Z,18.80
2018-05-21T06:03:44.088Z,19.00
2018-05-21T06:09:02.141Z,19.00
2018-05-21T06:11:29.712Z,18.80
2018-05-21T06:13:57.147Z,19.00
2018-05-21T06:16:24.593Z,19.20
2018-05-21T06:18:52.044Z,19.40
2018-05-21T06:21:19.545Z,19.60
2018-05-21T06:23:46.979Z,19.80
2018-05-21T06:26:14.460Z,19.60
2018-05-21T06:28:41.909Z,19.80
2018-05-21T06:31:09.352Z,19.90
2018-05-21T06:33:36.796Z,20.20
2018-05-21T06:36:04.320Z,20.40
2018-05-21T06:38:31.842Z,20.90
2018-05-21T06:40:59.355Z,21.90
2018-05-21T06:43:26.717Z,23.60
2018-05-21T06:45:54.913Z,26.90
2018-05-21T06:48:22.362Z,26.80
2018-05-21T06:50:49.783Z,28.40
2018-05-21T06:53:17.215Z,29.30
2018-05-21T06:55:44.653Z,30.10
2018-05-21T06:58:12.105Z,30.90
2018-05-21T07:00:39.540Z,31.80
2018-05-21T07:03:07.014Z,32.70
2018-05-21T07:05:34.451Z,32.90
2018-05-21T07:08:02.082Z,33.10
2018-05-21T07:10:29.715Z,34.00
2018-05-21T07:12:57.147Z,33.90
2018-05-21T07:15:24.598Z,34.10
2018-05-21T07:17:52.023Z,34.90
2018-05-21T07:20:19.461Z,34.90
2018-05-21T07:22:46.890Z,35.30
2018-05-21T07:25:14.319Z,35.60
2018-05-21T07:27:41.760Z,35.70
2018-05-21T07:30:09.962Z,36.30
2018-05-21T07:32:37.421Z,36.20
2018-05-21T07:35:04.864Z,36.30
2018-05-21T07:37:33.050Z,36.80
2018-05-21T07:40:00.494Z,36.70
2018-05-21T07:42:29.599Z,36.80
2018-05-21T07:44:57.064Z,36.80
2018-05-21T07:47:25.244Z,37.40
2018-05-21T07:49:53.560Z,37.30
2018-05-21T07:52:21.033Z,38.10
2018-05-21T07:54:48.423Z,38.80
2018-05-21T07:57:15.851Z,39.20
2018-05-21T07:59:43.362Z,39.40
2018-05-21T08:02:10.782Z,39.20
2018-05-21T08:04:38.985Z,39.30
2018-05-21T08:07:06.415Z,39.30
2018-05-21T08:09:34.607Z,39.20
2018-05-21T08:12:02.040Z,39.20
2018-05-21T08:14:30.680Z,39.10
2018-05-21T08:16:58.045Z,39.10
2018-05-21T08:19:25.480Z,39.30
2018-05-21T08:21:52.906Z,39.40
2018-05-21T08:24:22.208Z,39.50
2018-05-21T08:26:49.353Z,39.40
2018-05-21T08:29:17.616Z,39.30
2018-05-21T08:31:44.979Z,39.30
2018-05-21T08:34:13.184Z,40.20
2018-05-21T08:36:40.610Z,40.10
2018-05-21T08:39:08.815Z,40.30
2018-05-21T08:41:36.240Z,40.30
2018-05-21T08:44:04.461Z,39.70
2018-05-21T08:46:31.887Z,39.60
2018-05-21T08:49:00.099Z,39.60
2018-05-21T08:51:27.534Z,39.50
2018-05-21T08:53:55.027Z,39.90
2018-05-21T08:56:23.189Z,40.20
2018-05-21T08:58:50.695Z,40.10
2018-05-21T09:01:18.816Z,40.60
2018-05-21T09:03:46.241Z,40.60
2018-05-21T09:06:14.449Z,40.40
2018-05-21T09:08:41.909Z,40.40
2018-05-21T09:11:09.323Z,40.60
2018-05-21T09:13:37.515Z,40.70
2018-05-21T09:16:04.950Z,40.70
2018-05-21T09:18:33.143Z,40.80
2018-05-21T09:21:01.346Z,40.30
2018-05-21T09:23:28.843Z,40.30
2018-05-21T09:25:56.336Z,40.50
2018-05-21T09:28:23.698Z,40.80
2018-05-21T09:30:51.134Z,40.70
2018-05-21T09:33:19.339Z,40.20
2018-05-21T09:35:46.778Z,40.20
2018-05-21T09:38:14.981Z,41.00
2018-05-21T09:40:42.423Z,41.00
2018-05-21T09:43:09.872Z,40.70
2018-05-21T09:45:38.085Z,41.40
2018-05-21T09:48:05.586Z,41.30
2018-05-21T09:50:33.699Z,41.20
2018-05-21T09:53:01.144Z,41.10
2018-05-21T09:55:30.260Z,40.70
2018-05-21T09:57:57.691Z,40.70
2018-05-21T10:00:25.128Z,41.20
2018-05-21T10:02:52.626Z,40.90
2018-05-21T10:05:20.067Z,41.20
2018-05-21T10:07:47.495Z,41.50
2018-05-21T10:10:14.943Z,41.90
2018-05-21T10:12:42.373Z,41.90
2018-05-21T10:15:09.814Z,41.80
2018-05-21T10:17:38.233Z,42.00
2018-05-21T10:20:05.678Z,42.40
2018-05-21T10:22:33.113Z,42.20
2018-05-21T10:25:00.547Z,42.10
2018-05-21T10:27:27.977Z,42.10
2018-05-21T10:29:55.404Z,42.10
2018-05-21T10:32:22.879Z,42.70
2018-05-21T10:34:50.322Z,42.30
2018-05-21T10:37:17.789Z,42.70
2018-05-21T10:39:45.183Z,42.90
2018-05-21T10:42:13.412Z,43.70
2018-05-21T10:44:40.847Z,43.70
2018-05-21T10:47:08.287Z,43.90
2018-05-21T10:49:35.714Z,43.20
2018-05-21T10:52:03.155Z,43.20
2018-05-21T10:54:30.602Z,43.40
2018-05-21T10:56:58.055Z,43.40
2018-05-21T10:59:25.500Z,43.70
2018-05-21T11:01:52.936Z,43.70
2018-05-21T11:04:20.372Z,44.40
2018-05-21T11:06:48.584Z,44.50
2018-05-21T11:09:16.011Z,44.50
2018-05-21T11:11:44.209Z,44.50
2018-05-21T11:14:11.646Z,44.50
2018-05-21T11:16:39.093Z,44.30
2018-05-21T11:19:07.319Z,44.30
2018-05-21T11:21:34.757Z,44.30
2018-05-21T11:24:02.238Z,44.10
2018-05-21T11:26:30.392Z,44.20
2018-05-21T11:28:57.807Z,44.60
2018-05-21T11:31:26.016Z,44.60
2018-05-21T11:33:53.463Z,44.50
2018-05-21T11:36:21.660Z,44.20
2018-05-21T11:38:49.117Z,44.10
2018-05-21T11:41:16.588Z,44.40
2018-05-21T11:43:44.022Z,44.50
2018-05-21T11:46:12.328Z,44.40
2018-05-21T11:48:39.767Z,44.80
2018-05-21T11:51:07.228Z,45.30
2018-05-21T11:53:34.645Z,45.40
2018-05-21T11:56:02.852Z,44.90
2018-05-21T11:58:30.296Z,44.90
2018-05-21T12:00:57.736Z,45.20
2018-05-21T12:03:25.978Z,44.60
2018-05-21T12:05:53.379Z,44.50
2018-05-21T12:08:21.785Z,43.60
2018-05-21T12:10:49.209Z,43.60
2018-05-21T12:13:17.403Z,44.00
2018-05-21T12:15:44.835Z,44.10
2018-05-21T12:18:13.056Z,43.40
2018-05-21T12:20:40.473Z,43.40
2018-05-21T12:23:08.685Z,43.60
2018-05-21T12:25:36.112Z,43.60
2018-05-21T12:28:04.340Z,43.50
2018-05-21T12:30:31.786Z,43.50
2018-05-21T12:32:59.218Z,43.70
2018-05-21T12:35:26.688Z,44.30
2018-05-21T12:37:54.104Z,44.40
2018-05-21T12:40:22.319Z,44.10
2018-05-21T12:42:49.790Z,44.10
2018-05-21T12:45:17.195Z,44.40
2018-05-21T12:47:45.399Z,44.20
2018-05-21T12:50:12.831Z,44.20
2018-05-21T12:52:41.110Z,43.70
2018-05-21T12:55:08.533Z,43.70
2018-05-21T12:57:35.970Z,44.00
2018-05-21T13:00:03.419Z,43.80
2018-05-21T13:02:30.875Z,43.50
2018-05-21T13:04:58.323Z,43.80
2018-05-21T13:07:25.755Z,43.90
2018-05-21T13:09:53.964Z,43.70
2018-05-21T13:12:21.401Z,43.70
2018-05-21T13:14:48.840Z,43.50
2018-05-21T13:17:17.043Z,43.30
2018-05-21T13:19:44.488Z,43.30
2018-05-21T13:22:12.691Z,42.90
2018-05-21T13:24:40.135Z,42.90
2018-05-21T13:27:07.576Z,42.90
2018-05-21T13:29:35.015Z,42.80
2018-05-21T13:32:02.444Z,43.30
2018-05-21T13:34:30.540Z,44.00
2018-05-21T13:36:57.915Z,43.90
2018-05-21T13:39:26.103Z,43.30
2018-05-21T13:41:53.538Z,43.30
2018-05-21T13:44:21.755Z,42.70
2018-05-21T13:46:49.180Z,42.60
2018-05-21T13:49:17.398Z,42.90
2018-05-21T13:51:44.818Z,42.90
2018-05-21T13:54:13.016Z,42.40
2018-05-21T13:56:40.446Z,42.40
2018-05-21T13:59:07.896Z,42.50
2018-05-21T14:01:36.091Z,42.60
2018-05-21T14:04:03.524Z,42.60
2018-05-21T14:06:31.711Z,41.90
2018-05-21T14:08:59.924Z,42.00
2018-05-21T14:11:27.360Z,42.00
2018-05-21T14:13:54.793Z,41.70
2018-05-21T14:16:23.004Z,41.30
2018-05-21T14:18:50.489Z,41.20
2018-05-21T14:21:17.880Z,41.10
2018-05-21T14:23:46.097Z,40.90
2018-05-21T14:26:13.527Z,40.90
2018-05-21T14:28:40.959Z,40.70
2018-05-21T14:31:08.394Z,40.20
2018-05-21T14:33:35.844Z,39.70
2018-05-21T14:36:03.285Z,39.20
2018-05-21T14:38:30.755Z,38.90
2018-05-21T14:40:58.206Z,38.50
2018-05-21T14:43:25.644Z,37.50
2018-05-21T14:45:53.099Z,37.40
2018-05-21T14:48:20.557Z,36.70
2018-05-21T14:50:48.752Z,36.00
2018-05-21T14:53:16.184Z,36.00
2018-05-21T14:55:43.616Z,35.90
2018-05-21T14:58:11.837Z,35.60
2018-05-21T15:00:39.277Z,35.50
2018-05-21T15:03:06.715Z,35.50
2018-05-21T15:05:34.912Z,35.50
2018-05-21T15:08:02.366Z,35.50
2018-05-21T15:10:31.480Z,35.20
2018-05-21T15:12:58.921Z,35.10
2018-05-21T15:15:26.419Z,34.90
2018-05-21T15:17:53.851Z,34.60
2018-05-21T15:20:21.298Z,34.50
2018-05-21T15:22:48.751Z,34.60
2018-05-21T15:25:16.183Z,34.20
2018-05-21T15:27:44.388Z,34.10
2018-05-21T15:30:11.836Z,34.00
2018-05-21T15:32:39.268Z,34.00
2018-05-21T15:35:06.712Z,34.00
2018-05-21T15:37:34.135Z,33.70
2018-05-21T15:40:01.589Z,33.90
2018-05-21T15:42:29.025Z,33.80
2018-05-21T15:44:57.235Z,33.30
2018-05-21T15:47:24.669Z,33.20
2018-05-21T15:49:52.130Z,33.30
2018-05-21T15:52:19.542Z,33.40
2018-05-21T15:54:46.975Z,33.20
2018-05-21T15:57:14.413Z,33.20
2018-05-21T15:59:41.841Z,33.40
2018-05-21T16:02:10.028Z,33.60
2018-05-21T16:04:37.465Z,33.60
2018-05-21T16:07:05.675Z,33.20
2018-05-21T16:09:33.335Z,33.20
2018-05-21T16:12:00.803Z,33.30
2018-05-21T16:14:28.262Z,33.50
2018-05-21T16:16:55.721Z,33.60
2018-05-21T16:19:23.163Z,33.50
2018-05-21T16:21:50.586Z,33.40
2018-05-21T16:24:18.811Z,33.10
2018-05-21T16:26:46.290Z,33.00
2018-05-21T16:29:14.246Z,33.30
2018-05-21T16:31:41.702Z,33.40
2018-05-21T16:34:09.181Z,33.20
2018-05-21T16:36:36.610Z,33.20
2018-05-21T16:39:04.047Z,33.00
2018-05-21T16:41:31.507Z,33.00
2018-05-21T16:43:59.699Z,32.70
2018-05-21T16:46:27.128Z,32.70
2018-05-21T16:48:54.609Z,32.50
2018-05-21T16:51:22.016Z,32.50
2018-05-21T16:53:50.337Z,32.30
2018-05-21T16:56:17.688Z,32.30
2018-05-21T16:58:45.125Z,32.00
2018-05-21T17:01:12.552Z,32.00
2018-05-21T17:03:40.084Z,32.10
2018-05-21T17:06:07.527Z,31.80
2018-05-21T17:08:34.959Z,31.90
2018-05-21T17:11:02.399Z,32.00
2018-05-21T17:13:31.533Z,31.80
2018-05-21T17:15:58.958Z,31.80
2018-05-21T17:18:27.160Z,31.70
2018-05-21T17:20:54.600Z,31.70
2018-05-21T17:23:22.791Z,31.50
2018-05-21T17:25:50.238Z,31.50
2018-05-21T17:28:17.666Z,31.30
2018-05-21T17:30:45.101Z,31.20
2018-05-21T17:33:12.541Z,31.00
2018-05-21T17:35:40.057Z,31.00
2018-05-21T17:38:07.436Z,30.80
2018-05-21T17:40:34.914Z,30.90
2018-05-21T17:43:02.373Z,30.90
2018-05-21T17:45:31.488Z,30.50
2018-05-21T17:47:58.928Z,30.50
2018-05-21T17:50:26.363Z,30.30
2018-05-21T17:52:54.150Z,30.20
2018-05-21T17:55:21.566Z,30.10
2018-05-21T17:57:49.847Z,30.20
2018-05-21T18:00:17.231Z,30.20
2018-05-21T18:02:44.702Z,30.10
2018-05-21T18:05:12.134Z,30.20
2018-05-21T18:07:39.592Z,29.90
2018-05-21T18:10:07.017Z,29.80
2018-05-21T18:12:35.260Z,29.50
2018-05-21T18:15:03.459Z,29.50
2018-05-21T18:17:30.995Z,29.50
2018-05-21T18:19:58.465Z,29.50
2018-05-21T18:22:25.891Z,29.30
2018-05-21T18:24:53.339Z,29.30
2018-05-21T18:27:20.769Z,29.30
2018-05-21T18:29:48.973Z,29.10
2018-05-21T18:32:16.395Z,29.00
2018-05-21T18:34:44.594Z,29.10
2018-05-21T18:37:12.066Z,29.10
2018-05-21T18:39:39.483Z,29.10
2018-05-21T18:42:07.686Z,28.80
2018-05-21T18:44:35.108Z,28.80
2018-05-21T18:47:03.315Z,28.70
2018-05-21T18:49:31.909Z,28.60
2018-05-21T18:51:59.337Z,28.50
2018-05-21T18:54:27.532Z,28.30
2018-05-21T18:56:54.976Z,28.30
2018-05-21T18:59:23.167Z,28.00
2018-05-21T19:01:50.655Z,28.00
2018-05-21T19:04:18.141Z,28.00
2018-05-21T19:06:45.572Z,28.10
2018-05-21T19:09:13.023Z,27.90
2018-05-21T19:11:40.466Z,27.90
2018-05-21T19:14:07.899Z,27.70
2018-05-21T19:16:36.111Z,27.50
2018-05-21T19:19:03.540Z,27.40
2018-05-21T19:21:31.151Z,27.40
2018-05-21T19:23:58.579Z,27.30
2018-05-21T19:26:26.010Z,27.20
2018-05-21T19:28:53.456Z,27.10
2018-05-21T19:31:21.646Z,26.80
2018-05-21T19:33:49.079Z,26.70
2018-05-21T19:36:16.511Z,26.70
2018-05-21T19:38:43.939Z,26.80
2018-05-21T19:41:11.379Z,26.60
2018-05-21T19:43:38.832Z,26.50
2018-05-21T19:46:06.275Z,26.50
2018-05-21T19:48:34.516Z,26.50
2018-05-21T19:51:01.941Z,26.40
2018-05-21T19:53:29.375Z,26.40
2018-05-21T19:55:56.807Z,26.40
2018-05-21T19:58:25.837Z,26.30
2018-05-21T20:00:54.040Z,26.10
2018-05-21T20:03:21.483Z,26.10
2018-05-21T20:05:50.064Z,26.00
2018-05-21T20:08:17.955Z,25.80
2018-05-21T20:10:45.412Z,25.80
2018-05-21T20:13:13.966Z,25.60
2018-05-21T20:15:41.424Z,25.50
2018-05-21T20:18:08.862Z,25.40
2018-05-21T20:20:42.964Z,25.30
2018-05-21T20:23:11.192Z,25.20
2018-05-21T20:25:38.624Z,25.20
2018-05-21T20:28:06.955Z,25.20
2018-05-21T20:30:34.379Z,25.10
2018-05-21T20:33:02.217Z,25.00
2018-05-21T20:35:31.441Z,25.10
2018-05-21T20:37:58.917Z,25.10
2018-05-21T20:40:26.342Z,25.20
2018-05-21T20:42:53.807Z,25.10
2018-05-21T20:45:21.291Z,25.20
2018-05-21T20:47:49.988Z,25.10
2018-05-21T20:50:21.823Z,25.20
2018-05-21T20:52:49.292Z,25.10
2018-05-21T20:55:22.383Z,24.90
2018-05-21T20:57:49.826Z,24.90
2018-05-21T21:00:17.253Z,24.90
2018-05-21T21:02:45.452Z,24.70
2018-05-21T21:05:12.875Z,24.70
2018-05-21T21:07:41.150Z,24.70
2018-05-21T21:10:09.374Z,24.70
2018-05-21T21:12:36.823Z,24.70
2018-05-21T21:15:04.261Z,24.70
2018-05-21T21:17:31.692Z,24.70
2018-05-21T21:19:59.144Z,24.70
2018-05-21T21:22:26.675Z,24.60
2018-05-21T21:24:54.126Z,24.50
2018-05-21T21:27:21.595Z,24.50
2018-05-21T21:29:49.022Z,24.40
2018-05-21T21:32:16.499Z,24.20
2018-05-21T21:34:43.927Z,24.20
2018-05-21T21:37:11.419Z,24.20
2018-05-21T21:39:38.881Z,24.20
2018-05-21T21:42:06.351Z,24.20
2018-05-21T21:44:33.795Z,24.10
2018-05-21T21:47:01.792Z,24.20
2018-05-21T21:49:29.219Z,24.10
2018-05-21T21:51:56.677Z,24.10
2018-05-21T21:54:24.127Z,24.00
2018-05-21T21:56:51.594Z,23.90
2018-05-21T21:59:19.038Z,23.90
2018-05-21T22:01:46.504Z,23.90
2018-05-21T22:04:13.935Z,23.80
2018-05-21T22:06:41.380Z,23.60
2018-05-21T22:09:08.870Z,23.70
2018-05-21T22:11:36.367Z,23.50
2018-05-21T22:14:03.807Z,23.40
2018-05-21T22:16:31.464Z,23.20
2018-05-21T22:18:58.909Z,23.30
2018-05-21T22:21:26.347Z,23.10
2018-05-21T22:23:53.827Z,23.10
2018-05-21T22:26:21.259Z,23.00
2018-05-21T22:28:48.752Z,23.00
2018-05-21T22:31:16.208Z,23.00
2018-05-21T22:33:43.647Z,23.00
2018-05-21T22:36:11.071Z,22.80
2018-05-21T22:38:38.525Z,22.80
2018-05-21T22:41:06.779Z,22.80
2018-05-21T22:43:34.314Z,22.80
2018-05-21T22:46:01.771Z,22.70
2018-05-21T22:48:29.221Z,22.80
2018-05-21T22:50:56.737Z,22.80
2018-05-21T22:53:24.945Z,22.60
2018-05-21T22:55:52.374Z,22.60
2018-05-21T22:58:20.596Z,22.60
2018-05-21T23:00:48.075Z,22.60
2018-05-21T23:03:15.510Z,22.60
2018-05-21T23:05:42.954Z,22.60
2018-05-21T23:08:10.385Z,22.70
2018-05-21T23:10:38.608Z,22.50
2018-05-21T23:13:06.038Z,22.50
2018-05-21T23:15:33.471Z,22.40
2018-05-21T23:18:01.661Z,22.30
2018-05-21T23:20:29.093Z,22.30
2018-05-21T23:22:57.323Z,22.20
2018-05-21T23:25:24.771Z,22.20
2018-05-21T23:27:52.239Z,22.30
2018-05-21T23:30:19.667Z,22.30
2018-05-21T23:32:47.138Z,22.20
2018-05-21T23:35:14.603Z,22.40
2018-05-21T23:37:42.037Z,22.40
2018-05-21T23:40:09.463Z,22.30
2018-05-21T23:42:37.707Z,22.30
2018-05-21T23:45:05.130Z,22.30
2018-05-21T23:47:32.570Z,22.30
2018-05-21T23:50:00.777Z,22.30
2018-05-21T23:52:28.242Z,22.30
2018-05-21T23:54:56.100Z,22.40
2018-05-21T23:57:23.535Z,22.30
2018-05-21T23:59:50.975Z,22.30
